createdAt,value
2023-01-12T00:01:42.743Z,3.60
2023-01-12T00:04:12.568Z,7.15
2023-01-12T00:06:39.807Z,9.15
2023-01-12T00:09:07.477Z,5.93
2023-01-12T00:11:37.490Z,5.53
2023-01-12T00:14:05.461Z,7.05
2023-01-12T00:16:35.229Z,6.75
2023-01-12T00:19:05.133Z,6.85
2023-01-12T00:21:35.719Z,5.22
2023-01-12T00:24:02.347Z,13.23
2023-01-12T00:26:28.871Z,3.70
2023-01-12T00:28:55.426Z,2.97
2023-01-12T00:31:22.057Z,3.78
2023-01-12T00:33:48.594Z,5.07
2023-01-12T00:36:18.010Z,4.75
2023-01-12T00:38:44.601Z,4.00
2023-01-12T00:41:32.817Z,6.53
2023-01-12T00:46:44.525Z,5.38
2023-01-12T00:49:11.129Z,5.90
2023-01-12T00:51:37.671Z,4.70
2023-01-12T00:54:04.774Z,3.90
2023-01-12T00:56:31.806Z,2.63
2023-01-12T00:58:58.350Z,4.45
2023-01-12T01:01:25.029Z,1.30
2023-01-12T01:03:51.732Z,4.53
2023-01-12T01:06:18.424Z,2.03
2023-01-12T01:08:44.942Z,4.43
2023-01-12T01:11:12.647Z,9.30
2023-01-12T01:13:46.015Z,5.38
2023-01-12T01:16:15.108Z,6.82
2023-01-12T01:18:42.222Z,5.55
2023-01-12T01:21:10.469Z,5.75
2023-01-12T01:23:37.916Z,3.47
2023-01-12T01:26:06.628Z,1.80
2023-01-12T01:28:34.753Z,3.72
2023-01-12T01:31:19.519Z,2.58
2023-01-12T01:33:46.605Z,3.65
2023-01-12T01:36:13.332Z,3.47
2023-01-12T01:38:40.507Z,3.03
2023-01-12T01:41:07.567Z,3.10
2023-01-12T01:43:58.711Z,4.03
2023-01-12T01:46:32.028Z,1.40
2023-01-12T01:49:08.152Z,1.92
2023-01-12T01:51:34.782Z,2.55
2023-01-12T01:54:03.238Z,5.78
2023-01-12T01:56:33.738Z,5.40
2023-01-12T01:59:16.016Z,4.93
2023-01-12T02:01:43.721Z,4.15
2023-01-12T02:04:10.756Z,7.80
2023-01-12T02:06:37.530Z,3.28
2023-01-12T02:09:15.433Z,1.58
2023-01-12T02:12:01.707Z,3.28
2023-01-12T02:14:47.129Z,1.55
2023-01-12T02:17:13.646Z,3.78
2023-01-12T02:20:11.485Z,3.03
2023-01-12T02:22:44.030Z,4.28
2023-01-12T02:25:46.194Z,7.85
2023-01-12T02:28:43.690Z,4.53
2023-01-12T02:31:31.673Z,2.38
2023-01-12T02:34:24.533Z,3.05
2023-01-12T02:36:53.925Z,2.20
2023-01-12T02:39:41.855Z,3.75
2023-01-12T02:42:40.135Z,3.88
2023-01-12T02:45:34.639Z,3.22
2023-01-12T02:48:28.571Z,4.95
2023-01-12T02:51:00.715Z,3.03
2023-01-12T02:53:51.023Z,1.58
2023-01-12T02:56:45.407Z,3.15
2023-01-12T03:02:12.272Z,5.07
2023-01-12T03:04:39.697Z,6.70
2023-01-12T03:07:06.162Z,2.20
2023-01-12T03:09:44.107Z,5.18
2023-01-12T03:12:16.080Z,7.18
2023-01-12T03:14:46.768Z,4.00
2023-01-12T03:17:32.016Z,6.05
2023-01-12T03:20:07.233Z,2.17
2023-01-12T03:22:36.482Z,11.18
2023-01-12T03:25:10.291Z,7.55
2023-01-12T03:27:41.013Z,4.85
2023-01-12T03:30:20.083Z,4.55
2023-01-12T03:32:46.753Z,4.32
2023-01-12T03:35:13.617Z,8.13
2023-01-12T03:37:50.347Z,5.07
2023-01-12T03:40:19.883Z,1.80
2023-01-12T03:43:23.979Z,5.82
2023-01-12T03:46:03.118Z,4.22
2023-01-12T03:48:35.762Z,3.10
2023-01-12T03:51:10.470Z,2.47
2023-01-12T03:53:39.281Z,4.00
2023-01-12T03:56:09.751Z,5.75
2023-01-12T03:58:37.107Z,5.57
2023-01-12T04:01:04.727Z,7.43
2023-01-12T04:03:31.567Z,2.38
2023-01-12T04:05:58.172Z,3.58
2023-01-12T04:08:24.759Z,2.22
2023-01-12T04:10:51.282Z,6.88
2023-01-12T04:13:17.815Z,1.85
2023-01-12T04:15:44.435Z,5.97
2023-01-12T04:18:12.508Z,3.50
2023-01-12T04:20:39.734Z,3.38
2023-01-12T04:23:09.674Z,3.03
2023-01-12T04:25:36.505Z,3.72
2023-01-12T04:28:03.783Z,3.83
2023-01-12T04:30:32.620Z,4.95
2023-01-12T04:33:00.396Z,8.18
2023-01-12T04:35:27.757Z,2.00
2023-01-12T04:37:54.867Z,2.78
2023-01-12T04:40:21.473Z,5.95
2023-01-12T04:43:02.109Z,2.05
2023-01-12T04:45:29.324Z,6.25
2023-01-12T04:47:55.952Z,4.97
2023-01-12T04:50:22.467Z,1.95
2023-01-12T04:52:49.040Z,3.55
2023-01-12T04:55:15.635Z,4.40
2023-01-12T04:57:42.139Z,6.25
2023-01-12T05:00:09.287Z,5.55
2023-01-12T05:02:35.795Z,5.07
2023-01-12T05:05:02.577Z,2.33
2023-01-12T05:07:29.107Z,4.80
2023-01-12T05:10:14.117Z,9.52
2023-01-12T05:12:40.678Z,4.60
2023-01-12T05:15:07.673Z,4.80
2023-01-12T05:17:34.187Z,2.25
2023-01-12T05:20:01.191Z,5.45
2023-01-12T05:22:27.879Z,6.55
2023-01-12T05:24:54.434Z,8.95
2023-01-12T05:27:21.244Z,3.42
2023-01-12T05:29:47.822Z,5.43
2023-01-12T05:32:14.474Z,4.38
2023-01-12T05:34:41.714Z,1.77
2023-01-12T05:37:08.331Z,3.13
2023-01-12T05:39:34.810Z,6.30
2023-01-12T05:42:19.883Z,4.68
2023-01-12T05:44:46.427Z,5.75
2023-01-12T05:47:12.985Z,4.40
2023-01-12T05:49:39.524Z,4.28
2023-01-12T05:52:06.201Z,5.35
2023-01-12T05:54:32.732Z,4.82
2023-01-12T05:56:59.288Z,2.15
2023-01-12T05:59:25.820Z,4.10
2023-01-12T06:01:52.398Z,3.22
2023-01-12T06:04:19.063Z,4.72
2023-01-12T06:06:46.527Z,7.82
2023-01-12T06:09:13.075Z,6.03
2023-01-12T06:11:57.803Z,5.90
2023-01-12T06:14:24.447Z,4.95
2023-01-12T06:16:50.969Z,7.18
2023-01-12T06:19:17.481Z,4.43
2023-01-12T06:21:44.015Z,6.32
2023-01-12T06:24:10.887Z,5.72
2023-01-12T06:26:37.493Z,3.25
2023-01-12T06:29:06.872Z,4.55
2023-01-12T06:31:33.907Z,7.15
2023-01-12T06:34:00.488Z,7.80
2023-01-12T06:36:27.017Z,7.53
2023-01-12T06:38:53.614Z,2.80
2023-01-12T06:41:38.897Z,2.72
2023-01-12T06:44:05.544Z,3.67
2023-01-12T06:46:32.127Z,8.40
2023-01-12T06:48:58.910Z,4.65
2023-01-12T06:51:26.123Z,6.78
2023-01-12T06:53:53.208Z,5.60
2023-01-12T06:56:20.013Z,4.53
2023-01-12T06:58:46.711Z,3.22
2023-01-12T07:01:13.854Z,7.00
2023-01-12T07:03:40.978Z,4.15
2023-01-12T07:06:08.006Z,5.47
2023-01-12T07:08:35.543Z,3.28
2023-01-12T07:11:08.115Z,3.78
2023-01-12T07:13:35.038Z,5.22
2023-01-12T07:16:02.034Z,3.78
2023-01-12T07:18:29.553Z,6.88
2023-01-12T07:20:56.315Z,3.10
2023-01-12T07:23:23.317Z,4.47
2023-01-12T07:25:49.866Z,5.05
2023-01-12T07:28:16.512Z,8.70
2023-01-12T07:30:43.718Z,6.13
2023-01-12T07:33:12.656Z,3.58
2023-01-12T07:35:40.069Z,5.53
2023-01-12T07:38:06.723Z,5.18
2023-01-12T07:40:33.520Z,5.25
2023-01-12T07:43:01.550Z,4.75
2023-01-12T07:45:29.093Z,3.53
2023-01-12T07:47:56.220Z,1.38
2023-01-12T07:50:24.238Z,4.72
2023-01-12T07:52:50.959Z,2.83
2023-01-12T07:55:19.178Z,4.85
2023-01-12T07:57:55.374Z,4.07
2023-01-12T08:00:23.378Z,1.65
2023-01-12T08:02:54.111Z,5.18
2023-01-12T08:05:22.734Z,4.03
2023-01-12T08:07:49.736Z,6.30
2023-01-12T08:10:16.946Z,7.30
2023-01-12T08:12:43.605Z,2.60
2023-01-12T08:15:10.643Z,4.20
2023-01-12T08:18:13.148Z,7.00
2023-01-12T08:20:40.629Z,7.38
2023-01-12T08:23:16.555Z,5.03
2023-01-12T08:25:49.162Z,6.28
2023-01-12T08:28:21.473Z,3.92
2023-01-12T08:30:49.053Z,5.82
2023-01-12T08:33:16.902Z,1.75
2023-01-12T08:35:46.467Z,2.97
2023-01-12T08:38:13.595Z,3.67
2023-01-12T08:40:58.657Z,3.60
2023-01-12T08:43:43.992Z,2.58
2023-01-12T08:46:10.673Z,5.38
2023-01-12T08:48:38.055Z,7.10
2023-01-12T08:51:06.102Z,3.28
2023-01-12T08:53:32.651Z,4.32
2023-01-12T08:55:59.369Z,4.20
2023-01-12T08:58:26.012Z,4.22
2023-01-12T09:00:52.681Z,6.78
2023-01-12T09:03:19.264Z,3.53
2023-01-12T09:05:46.066Z,3.50
2023-01-12T09:08:12.623Z,4.88
2023-01-12T09:10:39.152Z,5.80
2023-01-12T09:13:05.687Z,1.85
2023-01-12T09:15:32.254Z,2.35
2023-01-12T09:17:58.776Z,7.65
2023-01-12T09:20:25.315Z,4.97
2023-01-12T09:22:51.832Z,3.50
2023-01-12T09:25:18.368Z,5.28
2023-01-12T09:27:45.143Z,3.95
2023-01-12T09:30:12.033Z,4.65
2023-01-12T09:32:38.550Z,8.55
2023-01-12T09:35:05.531Z,5.68
2023-01-12T09:37:32.063Z,4.57
2023-01-12T09:39:59.787Z,5.18
2023-01-12T09:42:45.155Z,2.40
2023-01-12T09:45:41.311Z,7.82
2023-01-12T09:48:13.872Z,3.33
2023-01-12T09:51:06.173Z,0.90
2023-01-12T09:53:36.839Z,5.13
2023-01-12T09:56:15.416Z,4.22
2023-01-12T09:59:18.361Z,2.55
2023-01-12T10:01:45.975Z,2.40
2023-01-12T10:04:13.788Z,0.85
2023-01-12T10:06:41.283Z,3.90
2023-01-12T10:09:15.227Z,3.20
2023-01-12T10:11:51.285Z,4.70
2023-01-12T10:14:33.142Z,4.63
2023-01-12T10:19:42.780Z,5.97
2023-01-12T10:22:39.623Z,2.90
2023-01-12T10:25:22.925Z,5.63
2023-01-12T10:27:55.316Z,3.60
2023-01-12T10:30:24.899Z,2.78
2023-01-12T10:32:51.787Z,6.10
2023-01-12T10:35:21.848Z,4.38
2023-01-12T10:37:54.280Z,6.00
2023-01-12T10:40:26.482Z,4.32
2023-01-12T10:43:21.657Z,2.47
2023-01-12T10:46:08.437Z,2.35
2023-01-12T10:48:36.032Z,4.40
2023-01-12T10:51:05.813Z,2.97
2023-01-12T10:53:37.819Z,2.28
2023-01-12T10:56:20.519Z,3.30
2023-01-12T10:59:21.991Z,3.58
2023-01-12T11:02:13.599Z,3.92
2023-01-12T11:04:54.207Z,3.97
2023-01-12T11:07:30.984Z,2.83
2023-01-12T11:10:28.298Z,2.75
2023-01-12T11:13:06.235Z,3.25
2023-01-12T11:15:39.374Z,3.35
2023-01-12T11:18:31.666Z,4.97
2023-01-12T11:21:01.212Z,2.78
2023-01-12T11:23:34.582Z,4.03
2023-01-12T11:26:04.464Z,4.75
2023-01-12T11:28:42.879Z,3.30
2023-01-12T11:31:21.124Z,2.85
2023-01-12T11:33:53.175Z,2.10
2023-01-12T11:36:26.440Z,5.28
2023-01-12T11:39:05.000Z,2.33
2023-01-12T11:41:40.323Z,1.75
2023-01-12T11:44:23.721Z,2.60
2023-01-12T11:46:59.385Z,3.53
2023-01-12T11:51:58.534Z,5.28
2023-01-12T11:54:28.032Z,1.65
2023-01-12T11:59:45.518Z,2.13
2023-01-12T12:02:37.066Z,3.03
2023-01-12T12:05:27.442Z,3.42
2023-01-12T12:07:56.676Z,2.97
2023-01-12T12:10:26.061Z,2.00
2023-01-12T12:13:15.118Z,2.85
2023-01-12T12:15:45.597Z,1.98
2023-01-12T12:18:35.154Z,2.25
2023-01-12T12:21:15.305Z,2.28
2023-01-12T12:24:10.363Z,1.23
2023-01-12T12:26:43.216Z,2.45
2023-01-12T12:29:21.903Z,1.98
2023-01-12T12:32:37.630Z,2.47
2023-01-12T12:35:22.886Z,3.30
2023-01-12T12:37:58.401Z,2.72
2023-01-12T12:40:55.636Z,1.85
2023-01-12T12:43:50.079Z,2.40
2023-01-12T12:46:54.074Z,2.00
2023-01-12T12:49:25.812Z,2.38
2023-01-12T12:51:54.856Z,5.28
2023-01-12T12:54:23.504Z,4.57
2023-01-12T12:56:50.852Z,3.50
2023-01-12T12:59:52.185Z,2.47
2023-01-12T13:02:37.973Z,1.52
2023-01-12T13:05:07.489Z,1.30
2023-01-12T13:10:10.477Z,1.60
2023-01-12T13:12:37.072Z,2.63
2023-01-12T13:15:23.316Z,1.58
2023-01-12T13:17:52.779Z,3.22
2023-01-12T13:20:25.813Z,2.22
2023-01-12T13:22:53.028Z,1.92
2023-01-12T13:25:19.570Z,2.80
2023-01-12T13:28:00.311Z,2.15
2023-01-12T13:30:26.848Z,2.35
2023-01-12T13:32:53.358Z,3.30
2023-01-12T13:35:46.631Z,1.42
2023-01-12T13:38:43.692Z,2.03
2023-01-12T13:41:13.446Z,1.30
2023-01-12T13:43:56.844Z,1.42
2023-01-12T13:46:28.147Z,3.70
2023-01-12T13:48:55.951Z,4.90
2023-01-12T13:51:41.575Z,4.47
2023-01-12T13:54:14.014Z,1.83
2023-01-12T13:56:42.335Z,1.45
2023-01-12T13:59:18.928Z,5.85
2023-01-12T14:01:47.681Z,1.85
2023-01-12T14:04:16.305Z,3.67
2023-01-12T14:06:59.540Z,0.55
2023-01-12T14:09:47.465Z,2.92
2023-01-12T14:12:26.154Z,1.00
2023-01-12T14:15:48.855Z,2.22
2023-01-12T14:18:18.047Z,1.75
2023-01-12T14:20:53.605Z,2.00
2023-01-12T14:23:26.285Z,2.15
2023-01-12T14:26:11.688Z,3.13
2023-01-12T14:28:40.907Z,4.82
2023-01-12T14:31:27.268Z,2.00
2023-01-12T14:33:56.506Z,3.90
2023-01-12T14:36:45.719Z,3.58
2023-01-12T14:39:20.334Z,2.60
2023-01-12T14:42:07.245Z,3.08
2023-01-12T14:44:57.381Z,1.50
2023-01-12T14:47:29.703Z,2.53
2023-01-12T14:49:56.238Z,1.83
2023-01-12T14:52:31.854Z,1.70
2023-01-12T14:55:19.745Z,1.13
2023-01-12T14:57:53.056Z,1.13
2023-01-12T15:00:25.760Z,2.35
2023-01-12T15:02:55.831Z,1.48
2023-01-12T15:05:30.353Z,0.98
2023-01-12T15:07:56.879Z,2.63
2023-01-12T15:10:28.413Z,2.97
2023-01-12T15:12:57.661Z,2.42
2023-01-12T15:15:27.107Z,1.35
2023-01-12T15:21:03.581Z,3.35
2023-01-12T15:23:52.516Z,1.05
2023-01-12T15:26:19.753Z,1.65
2023-01-12T15:28:50.071Z,2.55
2023-01-12T15:31:19.567Z,1.33
2023-01-12T15:36:14.035Z,1.02
2023-01-12T15:38:40.603Z,2.15
2023-01-12T15:41:07.343Z,1.83
2023-01-12T15:43:33.867Z,2.45
2023-01-12T15:46:00.436Z,2.03
2023-01-12T15:48:27.051Z,1.17
2023-01-12T15:50:53.606Z,3.47
2023-01-12T15:53:24.034Z,1.58
2023-01-12T15:55:50.616Z,4.68
2023-01-12T15:58:17.585Z,1.23
2023-01-12T16:00:44.844Z,1.23
2023-01-12T16:03:32.117Z,2.65
2023-01-12T16:08:25.827Z,1.00
2023-01-12T16:11:13.402Z,1.30
2023-01-12T16:13:41.112Z,1.65
2023-01-12T16:16:11.049Z,1.45
2023-01-12T16:18:37.619Z,1.10
2023-01-12T16:21:04.414Z,1.10
2023-01-12T16:23:31.903Z,2.47
2023-01-12T16:26:01.998Z,1.42
2023-01-12T16:28:29.227Z,2.00
2023-01-12T16:30:56.747Z,3.05
2023-01-12T16:33:23.477Z,7.55
2023-01-12T16:35:50.924Z,1.35
2023-01-12T16:38:18.443Z,1.77
2023-01-12T16:40:45.217Z,1.90
2023-01-12T16:43:12.143Z,3.35
2023-01-12T16:45:42.508Z,3.38
2023-01-12T16:48:09.244Z,2.00
2023-01-12T16:50:40.495Z,2.55
2023-01-12T16:53:12.009Z,2.75
2023-01-12T16:55:39.170Z,2.63
2023-01-12T16:58:06.845Z,2.08
2023-01-12T17:00:35.611Z,5.25
2023-01-12T17:03:02.871Z,1.83
2023-01-12T17:05:30.499Z,2.00
2023-01-12T17:07:57.460Z,3.78
2023-01-12T17:10:24.257Z,3.17
2023-01-12T17:12:56.759Z,2.17
2023-01-12T17:15:26.767Z,2.10
2023-01-12T17:17:54.736Z,1.02
2023-01-12T17:20:21.415Z,2.33
2023-01-12T17:22:48.215Z,1.35
2023-01-12T17:25:15.853Z,2.33
2023-01-12T17:27:43.029Z,2.92
2023-01-12T17:30:10.832Z,2.85
2023-01-12T17:32:37.759Z,1.85
2023-01-12T17:35:07.849Z,2.75
2023-01-12T17:37:34.427Z,1.70
2023-01-12T17:40:01.122Z,2.33
2023-01-12T17:42:51.687Z,1.35
2023-01-12T17:45:18.537Z,1.33
2023-01-12T17:47:45.131Z,3.20
2023-01-12T17:50:13.485Z,3.85
2023-01-12T17:52:40.163Z,1.90
2023-01-12T17:55:06.887Z,3.30
2023-01-12T17:57:36.028Z,2.60
2023-01-12T18:00:10.236Z,4.65
2023-01-12T18:02:36.834Z,2.35
2023-01-12T18:05:03.523Z,2.25
2023-01-12T18:07:31.956Z,2.05
2023-01-12T18:09:58.587Z,2.55
2023-01-12T18:12:26.107Z,2.13
2023-01-12T18:14:52.942Z,1.88
2023-01-12T18:17:19.478Z,2.53
2023-01-12T18:19:47.733Z,2.45
2023-01-12T18:22:14.259Z,2.88
2023-01-12T18:24:40.817Z,1.67
2023-01-12T18:27:07.504Z,3.13
2023-01-12T18:29:34.708Z,31.80
2023-01-12T18:32:01.444Z,65.88
2023-01-12T18:34:29.194Z,68.13
2023-01-12T18:36:55.960Z,15.27
2023-01-12T18:39:22.807Z,11.60
2023-01-12T18:42:08.825Z,1.55
2023-01-12T18:44:36.334Z,2.63
2023-01-12T18:47:22.955Z,2.17
2023-01-12T18:49:49.629Z,1.08
2023-01-12T18:52:36.761Z,1.70
2023-01-12T18:55:03.914Z,2.10
2023-01-12T18:57:32.333Z,1.60
2023-01-12T19:00:17.834Z,1.23
2023-01-12T19:02:45.027Z,2.72
2023-01-12T19:05:16.148Z,2.35
2023-01-12T19:07:51.855Z,1.98
2023-01-12T19:10:18.960Z,1.75
2023-01-12T19:12:46.109Z,1.70
2023-01-12T19:15:32.417Z,2.22
2023-01-12T19:17:59.059Z,2.25
2023-01-12T19:20:31.828Z,2.42
2023-01-12T19:23:17.038Z,2.40
2023-01-12T19:26:02.411Z,1.42
2023-01-12T19:28:38.281Z,2.20
2023-01-12T19:31:07.575Z,1.30
2023-01-12T19:33:35.657Z,1.48
2023-01-12T19:36:08.222Z,1.27
2023-01-12T19:38:36.131Z,1.17
2023-01-12T19:41:24.725Z,1.45
2023-01-12T19:43:51.392Z,1.55
2023-01-12T19:46:18.056Z,2.20
2023-01-12T19:48:46.883Z,1.25
2023-01-12T19:51:13.476Z,1.48
2023-01-12T19:53:40.340Z,1.98
2023-01-12T19:56:11.480Z,2.50
2023-01-12T19:58:38.326Z,1.58
2023-01-12T20:01:05.255Z,1.10
2023-01-12T20:03:32.368Z,1.08
2023-01-12T20:05:59.087Z,1.73
2023-01-12T20:08:25.939Z,1.00
2023-01-12T20:10:54.286Z,2.03
2023-01-12T20:13:20.925Z,0.93
2023-01-12T20:15:48.685Z,2.13
2023-01-12T20:18:15.367Z,2.00
2023-01-12T20:20:42.108Z,1.50
2023-01-12T20:23:08.744Z,2.05
2023-01-12T20:25:35.316Z,1.80
2023-01-12T20:28:01.894Z,2.90
2023-01-12T20:30:43.751Z,1.55
2023-01-12T20:35:41.277Z,3.85
2023-01-12T20:38:13.160Z,0.95
2023-01-12T20:40:39.686Z,1.48
2023-01-12T20:43:06.311Z,2.40
2023-01-12T20:45:33.177Z,1.30
2023-01-12T20:47:59.761Z,1.30
2023-01-12T20:50:26.281Z,1.42
2023-01-12T20:52:54.214Z,1.27
2023-01-12T20:55:21.284Z,1.00
2023-01-12T20:57:48.099Z,1.20
2023-01-12T21:00:15.158Z,1.55
2023-01-12T21:02:41.747Z,1.08
2023-01-12T21:05:09.049Z,1.30
2023-01-12T21:07:35.708Z,0.57
2023-01-12T21:10:02.351Z,0.80
2023-01-12T21:12:28.996Z,0.95
2023-01-12T21:14:55.608Z,1.52
2023-01-12T21:17:22.412Z,1.60
2023-01-12T21:19:49.132Z,1.77
2023-01-12T21:22:15.775Z,1.17
2023-01-12T21:24:42.555Z,1.10
2023-01-12T21:27:09.216Z,1.63
2023-01-12T21:29:35.793Z,1.55
2023-01-12T21:32:02.410Z,1.85
2023-01-12T21:34:29.118Z,1.70
2023-01-12T21:36:55.794Z,1.27
2023-01-12T21:39:22.372Z,0.45
2023-01-12T21:42:07.539Z,1.17
2023-01-12T21:44:34.080Z,1.25
2023-01-12T21:47:00.662Z,1.20
2023-01-12T21:49:27.222Z,1.17
2023-01-12T21:51:53.752Z,0.95
2023-01-12T21:54:20.310Z,1.33
2023-01-12T21:56:46.875Z,1.85
2023-01-12T21:59:13.647Z,0.95
2023-01-12T22:01:40.320Z,1.33
2023-01-12T22:04:07.069Z,1.92
2023-01-12T22:06:33.662Z,0.90
2023-01-12T22:09:00.227Z,1.75
2023-01-12T22:11:26.911Z,0.63
2023-01-12T22:13:53.563Z,0.32
2023-01-12T22:16:20.486Z,0.22
2023-01-12T22:18:49.533Z,0.75
2023-01-12T22:21:17.774Z,0.93
2023-01-12T22:23:44.380Z,0.55
2023-01-12T22:26:15.998Z,2.45
2023-01-12T22:28:47.778Z,0.85
2023-01-12T22:31:19.325Z,0.65
2023-01-12T22:33:55.819Z,1.67
2023-01-12T22:36:22.469Z,0.80
2023-01-12T22:38:49.084Z,0.50
2023-01-12T22:41:21.711Z,0.88
2023-01-12T22:43:49.448Z,0.73
2023-01-12T22:46:22.525Z,0.88
2023-01-12T22:48:57.010Z,0.38
2023-01-12T22:51:26.214Z,0.77
2023-01-12T22:53:54.134Z,0.50
2023-01-12T22:56:20.781Z,0.85
2023-01-12T22:58:51.849Z,0.57
2023-01-12T23:01:20.059Z,0.90
2023-01-12T23:03:48.210Z,1.50
2023-01-12T23:06:16.446Z,0.88
2023-01-12T23:08:44.510Z,0.88
2023-01-12T23:11:14.196Z,1.08
2023-01-12T23:13:45.395Z,1.23
2023-01-12T23:16:14.767Z,1.00
2023-01-12T23:18:44.311Z,2.40
2023-01-12T23:21:16.633Z,1.95
2023-01-12T23:23:48.100Z,2.08
2023-01-12T23:26:20.811Z,1.17
2023-01-12T23:28:50.498Z,1.10
2023-01-12T23:31:22.733Z,2.08
2023-01-12T23:33:50.238Z,2.60
2023-01-12T23:36:22.044Z,0.80
2023-01-12T23:38:56.077Z,2.33
2023-01-12T23:41:25.183Z,0.82
2023-01-12T23:43:53.550Z,1.13
2023-01-12T23:46:23.319Z,0.88
2023-01-12T23:48:54.422Z,1.25
2023-01-12T23:51:21.792Z,1.50
2023-01-12T23:53:53.048Z,2.60
2023-01-12T23:56:19.948Z,1.45
2023-01-12T23:58:47.788Z,1.17
